Time;durP1;ratioP1;P1;durP2;ratioP2;P2;SDS_P1;SDS_P2;PMS_P1;PMS_P2;Temp;Humidity;BMP_temperature;BMP_pressure;BME280_temperature;BME280_humidity;BME280_pressure;Samples;Min_cycle;Max_cycle;Signal;HPM_P1;HPM_P2
2022/04/19 00:00:25;;;;;;;7.63;5.30;;;8.40;99.90;;;;;;5028204;28;20206;-93
2022/04/19 00:02:56;;;;;;;8.70;5.80;;;8.30;99.90;;;;;;5030677;28;20259;-92
2022/04/19 00:05:26;;;;;;;12.43;6.07;;;8.30;99.90;;;;;;5040591;28;20220;-92
2022/04/19 00:07:54;;;;;;;8.03;5.37;;;;;;;;;;5023385;28;20256;-93
2022/04/19 00:10:43;;;;;;;7.70;5.73;;;8.20;99.90;;;;;;5030700;28;20205;-93
2022/04/19 00:13:22;;;;;;;8.37;6.00;;;8.20;99.90;;;;;;5033428;28;20244;-92
2022/04/19 00:15:49;;;;;;;9.47;6.33;;;8.20;99.90;;;;;;5034968;28;20270;-92
2022/04/19 00:18:27;;;;;;;8.50;5.83;;;8.10;99.90;;;;;;5017952;28;20230;-92
2022/04/19 00:20:54;;;;;;;9.07;6.17;;;8.00;99.90;;;;;;5031512;28;20229;-91
2022/04/19 00:23:24;;;;;;;11.07;7.00;;;8.00;99.90;;;;;;5026266;28;20229;-91
2022/04/19 00:25:52;;;;;;;8.37;6.07;;;8.00;99.90;;;;;;5019115;28;20249;-90
2022/04/19 00:28:20;;;;;;;10.90;6.43;;;7.90;99.90;;;;;;5025468;28;20253;-90
2022/04/19 00:30:55;;;;;;;11.30;6.60;;;7.90;99.90;;;;;;5021057;28;20231;-92
2022/04/19 00:33:22;;;;;;;9.67;7.57;;;7.90;99.90;;;;;;5012790;28;20279;-89
2022/04/19 00:35:49;;;;;;;15.27;7.30;;;7.80;99.90;;;;;;5020494;28;20260;-92
2022/04/19 00:38:17;;;;;;;11.57;7.40;;;7.80;99.90;;;;;;5019830;28;20233;-93
2022/04/19 00:40:45;;;;;;;10.20;6.80;;;7.80;99.90;;;;;;5013804;28;20317;-91
2022/04/19 00:43:18;;;;;;;11.30;7.17;;;7.70;99.90;;;;;;5016027;28;20205;-90
2022/04/19 00:45:47;;;;;;;8.60;6.63;;;7.70;99.90;;;;;;5021900;28;20197;-91
2022/04/19 00:48:14;;;;;;;10.30;7.27;;;7.60;99.90;;;;;;5021008;28;20202;-91
2022/04/19 00:50:43;;;;;;;8.37;6.90;;;7.60;99.90;;;;;;5014715;28;20235;-91
2022/04/19 00:53:11;;;;;;;8.93;6.40;;;7.60;99.90;;;;;;5034119;28;20628;-90
2022/04/19 00:55:38;;;;;;;8.53;6.13;;;7.60;99.90;;;;;;5013435;28;20225;-90
2022/04/19 00:58:06;;;;;;;11.60;7.27;;;7.50;99.90;;;;;;5006193;28;20585;-91
2022/04/19 01:00:33;;;;;;;11.23;6.87;;;7.50;99.90;;;;;;5024907;28;20221;-92
2022/04/19 01:03:02;;;;;;;10.90;6.97;;;7.50;99.90;;;;;;5017357;28;20201;-93
2022/04/19 01:05:38;;;;;;;10.70;7.47;;;7.40;99.90;;;;;;5017300;28;20694;-94
2022/04/19 01:08:13;;;;;;;13.13;7.87;;;7.40;99.90;;;;;;5023733;28;20579;-93
2022/04/19 01:10:45;;;;;;;11.47;8.17;;;7.40;99.90;;;;;;5020014;28;20210;-92
2022/04/19 01:13:17;;;;;;;11.03;7.90;;;7.30;99.90;;;;;;5024327;28;20214;-94
2022/04/19 01:15:50;;;;;;;10.43;7.90;;;7.30;99.90;;;;;;5014933;28;20201;-91
2022/04/19 01:18:24;;;;;;;11.30;7.73;;;7.20;99.90;;;;;;5021221;28;20661;-92
2022/04/19 01:20:52;;;;;;;12.07;8.53;;;7.20;99.90;;;;;;5020217;28;20243;-91
2022/04/19 01:23:20;;;;;;;10.60;7.93;;;7.20;99.90;;;;;;5029487;28;20284;-92
2022/04/19 01:25:48;;;;;;;11.27;8.37;;;7.20;99.90;;;;;;5032785;28;20213;-93
2022/04/19 01:28:16;;;;;;;13.50;8.87;;;7.20;99.90;;;;;;5028062;28;20218;-91
2022/04/19 01:30:43;;;;;;;11.80;7.47;;;7.10;99.90;;;;;;5020756;28;20669;-92
2022/04/19 01:33:11;;;;;;;12.90;8.67;;;7.10;99.90;;;;;;5022771;28;20210;-92
2022/04/19 01:35:39;;;;;;;12.23;8.90;;;7.10;99.90;;;;;;5026882;28;20227;-91
2022/04/19 01:38:09;;;;;;;13.43;8.73;;;7.10;99.90;;;;;;5028339;28;20664;-90
2022/04/19 01:40:36;;;;;;;16.03;9.73;;;7.00;99.90;;;;;;5024841;28;20207;-91
2022/04/19 01:43:04;;;;;;;15.63;9.77;;;7.00;99.90;;;;;;5033705;28;20200;-92
2022/04/19 01:45:38;;;;;;;13.70;10.03;;;7.00;99.90;;;;;;5020403;28;20264;-92
2022/04/19 01:48:06;;;;;;;17.13;10.43;;;7.00;99.90;;;;;;5026611;28;20312;-92
2022/04/19 01:50:38;;;;;;;14.17;9.90;;;7.00;99.90;;;;;;5026666;28;20218;-93
2022/04/19 01:53:06;;;;;;;18.10;10.40;;;7.00;99.90;;;;;;5038935;28;20291;-90
2022/04/19 01:55:34;;;;;;;15.40;10.43;;;6.90;99.90;;;;;;5027522;28;20247;-89
2022/04/19 01:58:02;;;;;;;15.10;9.87;;;7.00;99.90;;;;;;5024892;28;20219;-93
2022/04/19 02:00:32;;;;;;;14.13;10.07;;;6.90;99.90;;;;;;5030249;28;20192;-90
2022/04/19 02:02:59;;;;;;;14.67;10.80;;;6.90;99.90;;;;;;5037131;28;20202;-92
2022/04/19 02:05:26;;;;;;;12.43;9.40;;;7.00;99.90;;;;;;5030299;28;20379;-91
2022/04/19 02:07:53;;;;;;;18.23;10.63;;;6.80;99.90;;;;;;5019101;28;20223;-93
2022/04/19 02:10:23;;;;;;;13.17;9.97;;;6.90;99.90;;;;;;5013793;28;20211;-93
2022/04/19 02:12:51;;;;;;;17.07;10.97;;;6.90;99.90;;;;;;5029534;28;20204;-93
2022/04/19 02:15:18;;;;;;;14.47;10.43;;;6.80;99.90;;;;;;5027155;28;20197;-92
2022/04/19 02:17:50;;;;;;;17.03;11.73;;;6.80;99.90;;;;;;5032118;28;20238;-92
2022/04/19 02:20:18;;;;;;;14.63;10.63;;;6.80;99.90;;;;;;5009399;28;20788;-94
2022/04/19 02:22:47;;;;;;;18.33;11.30;;;6.70;99.90;;;;;;5017132;28;20626;-91
2022/04/19 02:25:16;;;;;;;16.50;10.63;;;6.70;99.90;;;;;;5021503;28;20207;-91
2022/04/19 02:27:44;;;;;;;14.70;10.40;;;6.70;99.90;;;;;;5019056;28;20207;-92
2022/04/19 02:30:15;;;;;;;17.23;11.17;;;6.70;99.90;;;;;;5023444;28;20308;-91
2022/04/19 02:32:51;;;;;;;15.33;10.70;;;6.70;99.90;;;;;;5018946;28;20272;-90
2022/04/19 02:35:21;;;;;;;17.20;10.87;;;6.60;99.90;;;;;;5027960;28;20206;-92
2022/04/19 02:37:49;;;;;;;17.87;11.53;;;6.60;99.90;;;;;;5025755;28;20235;-91
2022/04/19 02:40:18;;;;;;;16.67;11.70;;;6.60;99.90;;;;;;5039363;28;20510;-92
2022/04/19 02:42:51;;;;;;;17.50;11.80;;;6.50;99.90;;;;;;5033097;28;20188;-92
2022/04/19 02:45:21;;;;;;;16.83;10.90;;;6.50;99.90;;;;;;5025781;28;20198;-93
2022/04/19 02:47:51;;;;;;;17.43;11.20;;;6.40;99.90;;;;;;5027096;28;20293;-92
2022/04/19 02:50:18;;;;;;;16.93;10.90;;;6.40;99.90;;;;;;5020145;28;20236;-89
2022/04/19 02:52:45;;;;;;;16.93;11.80;;;6.40;99.90;;;;;;5028640;28;20219;-91
2022/04/19 02:55:12;;;;;;;17.30;11.10;;;6.30;99.90;;;;;;5018086;28;20198;-90
2022/04/19 02:57:40;;;;;;;15.53;10.40;;;6.30;99.90;;;;;;5009004;28;20295;-92
2022/04/19 03:00:08;;;;;;;17.40;10.37;;;6.20;99.90;;;;;;5025040;28;20197;-90
2022/04/19 03:02:35;;;;;;;14.40;10.73;;;6.20;99.90;;;;;;5026032;28;20234;-91
2022/04/19 03:05:02;;;;;;;17.73;10.87;;;6.20;99.90;;;;;;5027910;28;20302;-93
2022/04/19 03:07:29;;;;;;;17.80;11.03;;;6.20;99.90;;;;;;5017488;28;20219;-92
2022/04/19 03:09:57;;;;;;;16.43;11.27;;;6.10;99.90;;;;;;5018172;28;20207;-94
2022/04/19 03:12:27;;;;;;;15.67;10.70;;;6.10;99.90;;;;;;5012797;28;20208;-93
2022/04/19 03:14:56;;;;;;;16.20;12.30;;;6.10;99.90;;;;;;5026333;28;20328;-92
2022/04/19 03:17:23;;;;;;;18.63;11.23;;;6.10;99.90;;;;;;5013162;28;20701;-91
2022/04/19 03:19:50;;;;;;;16.10;10.97;;;6.10;99.90;;;;;;5008574;28;20347;-90
2022/04/19 03:22:18;;;;;;;20.17;13.13;;;6.00;99.90;;;;;;5016692;28;20213;-90
2022/04/19 03:27:41;;;;;;;21.43;13.23;;;6.00;99.90;;;;;;5012582;28;20250;-91
2022/04/19 03:30:10;;;;;;;25.93;13.40;;;6.00;99.90;;;;;;5010616;28;20217;-89
2022/04/19 03:32:36;;;;;;;22.90;14.23;;;5.80;99.90;;;;;;5014484;28;20307;-91
2022/04/19 03:35:04;;;;;;;20.87;12.77;;;5.80;99.90;;;;;;5016276;28;20582;-92
2022/04/19 03:37:33;;;;;;;23.67;13.33;;;5.80;99.90;;;;;;5012240;28;20598;-89
2022/04/19 03:40:00;;;;;;;18.93;12.50;;;5.70;99.90;;;;;;5008388;28;20256;-90
2022/04/19 03:42:28;;;;;;;24.77;13.13;;;5.70;99.90;;;;;;4994752;28;20568;-89
2022/04/19 03:44:55;;;;;;;20.40;12.67;;;5.70;99.90;;;;;;5008848;28;20718;-88
2022/04/19 03:47:22;;;;;;;19.63;12.60;;;5.60;99.90;;;;;;5007518;28;20199;-90
2022/04/19 03:49:49;;;;;;;18.87;12.37;;;5.60;99.90;;;;;;5013781;28;20285;-91
2022/04/19 03:52:16;;;;;;;18.67;11.70;;;5.60;99.90;;;;;;5016189;28;20216;-90
2022/04/19 03:54:42;;;;;;;20.13;13.30;;;5.10;99.90;;;;;;5009868;28;20230;-89
2022/04/19 03:57:10;;;;;;;20.87;14.40;;;5.50;99.90;;;;;;5000890;28;20317;-89
2022/04/19 03:59:38;;;;;;;19.63;13.27;;;5.50;99.90;;;;;;5004543;28;20203;-90
2022/04/19 04:02:06;;;;;;;19.20;12.47;;;5.30;99.90;;;;;;5015648;28;20299;-88
2022/04/19 04:04:35;;;;;;;19.77;12.63;;;5.50;99.90;;;;;;5009586;28;20256;-90
2022/04/19 04:07:07;;;;;;;20.90;13.87;;;5.50;99.90;;;;;;5010715;28;20227;-89
2022/04/19 04:09:37;;;;;;;22.43;13.63;;;5.40;99.90;;;;;;5010184;28;20216;-89
2022/04/19 04:12:09;;;;;;;21.53;13.43;;;5.40;99.90;;;;;;5008719;28;20603;-88
2022/04/19 04:14:36;;;;;;;20.73;13.47;;;5.20;99.90;;;;;;5003908;28;20620;-88
2022/04/19 04:17:03;;;;;;;20.97;14.13;;;5.30;99.90;;;;;;5003077;28;20700;-89
2022/04/19 04:19:31;;;;;;;18.67;12.37;;;5.40;99.90;;;;;;5009375;28;20234;-90
2022/04/19 04:21:58;;;;;;;22.30;13.03;;;5.40;99.90;;;;;;5012549;28;20277;-91
2022/04/19 04:24:27;;;;;;;23.20;13.30;;;5.30;99.90;;;;;;5008500;28;20214;-90
2022/04/19 04:26:54;;;;;;;23.57;13.97;;;5.30;99.90;;;;;;5007073;28;20214;-90
2022/04/19 04:29:21;;;;;;;20.07;13.30;;;5.30;99.90;;;;;;5000832;28;20273;-88
2022/04/19 04:31:49;;;;;;;22.63;13.17;;;5.30;99.90;;;;;;5010027;28;20678;-90
2022/04/19 04:34:16;;;;;;;20.10;13.47;;;5.30;99.90;;;;;;4996974;28;20580;-90
2022/04/19 04:36:43;;;;;;;21.27;13.47;;;5.70;99.90;;;;;;5006821;28;20589;-90
2022/04/19 04:39:10;;;;;;;21.10;13.93;;;5.30;99.90;;;;;;5005175;28;20615;-89
2022/04/19 04:41:36;;;;;;;20.03;13.20;;;5.30;99.90;;;;;;5005517;28;20206;-88
2022/04/19 04:44:05;;;;;;;19.93;13.67;;;5.30;99.90;;;;;;5009970;28;20258;-87
2022/04/19 04:49:39;;;;;;;21.70;12.73;;;5.40;99.90;;;;;;5002459;28;20254;-89
2022/04/19 04:52:11;;;;;;;23.43;13.33;;;5.90;99.90;;;;;;5007311;28;20222;-89
2022/04/19 04:54:40;;;;;;;18.07;12.77;;;5.40;99.90;;;;;;5010504;28;20203;-89
2022/04/19 04:57:08;;;;;;;20.83;14.10;;;5.40;99.90;;;;;;4998157;28;20242;-90
2022/04/19 04:59:36;;;;;;;22.33;13.43;;;5.80;99.90;;;;;;5009968;28;20682;-89
2022/04/19 05:02:05;;;;;;;22.57;14.93;;;5.40;99.90;;;;;;5015226;28;20267;-90
2022/04/19 05:04:33;;;;;;;25.30;14.57;;;5.30;99.90;;;;;;5021782;28;20262;-89
2022/04/19 05:07:02;;;;;;;19.20;13.40;;;5.90;99.90;;;;;;5013947;28;20675;-89
2022/04/19 05:09:29;;;;;;;25.57;14.30;;;5.50;99.90;;;;;;5009469;28;20211;-88
2022/04/19 05:11:56;;;;;;;23.73;13.60;;;5.50;99.90;;;;;;5016207;28;20651;-86
2022/04/19 05:14:28;;;;;;;19.90;13.20;;;5.40;99.90;;;;;;5012182;28;20219;-89
2022/04/19 05:16:54;;;;;;;19.73;13.00;;;6.10;99.90;;;;;;5013421;28;20227;-86
2022/04/19 05:19:22;;;;;;;19.97;13.23;;;5.70;99.90;;;;;;5023708;28;20231;-88
2022/04/19 05:21:49;;;;;;;20.50;13.80;;;5.60;99.90;;;;;;5031590;28;20227;-89
2022/04/19 05:24:16;;;;;;;23.87;15.10;;;5.70;99.90;;;;;;5029472;28;20200;-89
2022/04/19 05:26:44;;;;;;;23.07;13.63;;;5.80;99.90;;;;;;5030762;28;20329;-90
2022/04/19 05:29:11;;;;;;;21.77;13.43;;;5.90;99.90;;;;;;5028942;28;20214;-89
2022/04/19 05:31:38;;;;;;;20.90;13.63;;;5.90;99.90;;;;;;5032023;28;20277;-88
2022/04/19 05:34:05;;;;;;;20.00;13.33;;;6.00;99.90;;;;;;5019839;28;20196;-88
2022/04/19 05:36:32;;;;;;;24.77;15.03;;;6.00;99.90;;;;;;5015374;28;20717;-91
2022/04/19 05:39:00;;;;;;;20.27;13.87;;;6.30;99.90;;;;;;5003933;28;20232;-90
2022/04/19 05:41:27;;;;;;;22.03;13.20;;;6.10;99.90;;;;;;5006884;28;20202;-86
2022/04/19 05:43:55;;;;;;;21.53;13.53;;;6.20;99.90;;;;;;5004647;28;20260;-89
2022/04/19 05:46:22;;;;;;;24.67;13.60;;;6.60;99.90;;;;;;5019376;28;20687;-89
2022/04/19 05:48:50;;;;;;;22.90;13.97;;;6.60;99.90;;;;;;5016188;28;20202;-90
2022/04/19 05:51:20;;;;;;;26.80;14.43;;;6.40;99.90;;;;;;5015793;28;20601;-86
2022/04/19 05:53:49;;;;;;;20.80;14.63;;;6.40;99.90;;;;;;5032064;28;20203;-91
2022/04/19 05:56:17;;;;;;;22.33;15.37;;;6.60;99.90;;;;;;5018568;28;20211;-92
2022/04/19 05:58:45;;;;;;;24.20;15.63;;;6.70;99.90;;;;;;5013173;28;20227;-92
2022/04/19 06:01:12;;;;;;;24.43;15.07;;;6.70;99.90;;;;;;5020812;28;20210;-93
2022/04/19 06:06:28;;;;;;;23.40;14.40;;;6.80;99.90;;;;;;5004377;28;20212;-86
2022/04/19 06:08:55;;;;;;;27.37;15.20;;;7.00;99.90;;;;;;5002793;28;20213;-93
2022/04/19 06:11:23;;;;;;;24.57;15.90;;;7.30;99.90;;;;;;5016328;28;20619;-91
2022/04/19 06:13:52;;;;;;;24.67;15.00;;;7.40;99.90;;;;;;5018898;28;20969;-93
2022/04/19 06:16:19;;;;;;;27.60;16.27;;;7.50;99.90;;;;;;5017694;28;20252;-94
2022/04/19 06:18:46;;;;;;;25.77;15.20;;;7.60;99.90;;;;;;5026061;28;20229;-91
2022/04/19 06:21:14;;;;;;;22.23;14.40;;;8.70;99.90;;;;;;5024440;28;20302;-90
2022/04/19 06:23:42;;;;;;;21.27;13.53;;;9.90;99.90;;;;;;5038892;28;20199;-95
2022/04/19 06:26:10;;;;;;;20.00;13.03;;;;;;;;;;5033551;28;20233;-92
2022/04/19 06:28:37;;;;;;;15.97;11.10;;;13.30;99.90;;;;;;5027445;28;20239;-94
2022/04/19 06:31:15;;;;;;;22.83;12.50;;;14.90;99.90;;;;;;5022607;28;20189;-92
2022/04/19 06:34:01;;;;;;;18.97;12.67;;;16.30;99.90;;;;;;5018601;28;20202;-93
2022/04/19 06:36:49;;;;;;;20.73;12.70;;;18.30;99.90;;;;;;5013951;28;20276;-92
2022/04/19 06:40:06;;;;;;;19.13;12.00;;;18.40;99.90;;;;;;5018610;28;20231;-93
2022/04/19 06:42:43;;;;;;;17.70;11.70;;;19.50;99.90;;;;;;5031917;28;20276;-94
2022/04/19 06:45:17;;;;;;;17.65;13.05;;;20.80;96.20;;;;;;5026552;28;20237;-92
2022/04/19 06:48:10;;;;;;;18.88;12.25;;;20.90;97.70;;;;;;5018067;28;20202;-93
2022/04/19 06:50:43;;;;;;;17.67;11.38;;;21.60;94.60;;;;;;5006020;28;20214;-91
2022/04/19 06:53:10;;;;;;;16.73;11.60;;;22.00;92.70;;;;;;5007414;28;20752;-93
2022/04/19 06:55:40;;;;;;;14.95;11.07;;;22.10;91.40;;;;;;4999814;28;20248;-91
2022/04/19 06:58:08;;;;;;;16.17;11.98;;;22.40;88.90;;;;;;4995506;28;20207;-92
2022/04/19 07:00:36;;;;;;;15.70;11.20;;;22.70;87.80;;;;;;5016200;28;20210;-94
2022/04/19 07:03:03;;;;;;;16.65;11.60;;;23.00;84.60;;;;;;5012415;28;20226;-92
2022/04/19 07:05:30;;;;;;;14.05;11.10;;;23.20;83.60;;;;;;5001928;28;20225;-94
2022/04/19 07:07:57;;;;;;;14.73;11.43;;;23.10;81.10;;;;;;5010864;28;20314;-92
2022/04/19 07:10:25;;;;;;;14.43;11.18;;;23.20;81.40;;;;;;5006803;28;20216;-90
2022/04/19 07:12:52;;;;;;;17.92;11.88;;;23.50;80.30;;;;;;5011517;28;20206;-90
2022/04/19 07:15:22;;;;;;;14.68;10.98;;;23.70;79.20;;;;;;5024943;28;20210;-88
2022/04/19 07:17:53;;;;;;;17.27;11.30;;;23.90;76.70;;;;;;5024418;28;20651;-89
2022/04/19 07:28:37;;;;;;;13.70;10.73;;;24.00;73.50;;;;;;5021804;28;20210;-89
2022/04/19 07:31:05;;;;;;;16.42;11.48;;;24.10;72.80;;;;;;5017909;28;20212;-90
2022/04/19 07:33:38;;;;;;;15.23;11.13;;;24.10;72.20;;;;;;5014103;28;20203;-88
2022/04/19 07:36:06;;;;;;;14.15;10.90;;;24.20;71.50;;;;;;5013334;28;20253;-88
2022/04/19 07:38:34;;;;;;;16.67;11.02;;;24.30;71.40;;;;;;5014347;28;20233;-88
2022/04/19 07:41:03;;;;;;;13.95;10.70;;;24.50;71.50;;;;;;4998957;28;20203;-89
2022/04/19 07:43:30;;;;;;;15.15;10.63;;;24.30;69.80;;;;;;5007580;28;20233;-88
2022/04/19 07:45:57;;;;;;;15.80;10.75;;;24.30;69.40;;;;;;5013380;28;20261;-88
2022/04/19 07:48:24;;;;;;;14.10;10.32;;;24.20;67.20;;;;;;5013324;28;20198;-88
2022/04/19 07:50:53;;;;;;;15.38;11.18;;;24.00;66.90;;;;;;5002347;28;20211;-88
2022/04/19 07:53:24;;;;;;;15.80;10.40;;;23.70;67.70;;;;;;5008011;28;20225;-88
2022/04/19 07:55:57;;;;;;;15.38;10.82;;;23.70;68.20;;;;;;5008500;28;20309;-87
2022/04/19 07:58:25;;;;;;;14.48;10.18;;;23.90;69.50;;;;;;5012708;28;20857;-88
2022/04/19 08:00:53;;;;;;;15.40;10.23;;;24.10;68.30;;;;;;5008823;28;20261;-88
2022/04/19 08:03:20;;;;;;;14.68;9.60;;;24.30;67.30;;;;;;5014894;28;20203;-88
2022/04/19 08:05:47;;;;;;;13.48;10.50;;;24.40;66.30;;;;;;5022547;28;20202;-87
2022/04/19 08:08:14;;;;;;;13.70;9.75;;;24.50;65.40;;;;;;5019409;28;20226;-87
2022/04/19 08:10:42;;;;;;;14.25;10.00;;;24.70;64.40;;;;;;5017388;28;20237;-88
2022/04/19 08:13:11;;;;;;;15.65;9.38;;;24.50;64.10;;;;;;5011360;28;20203;-88
2022/04/19 08:15:38;;;;;;;13.48;8.90;;;24.40;63.20;;;;;;5015904;28;20210;-89
2022/04/19 08:18:06;;;;;;;12.57;8.68;;;24.20;63.00;;;;;;5012578;28;20214;-88
2022/04/19 08:20:33;;;;;;;15.65;9.18;;;24.30;63.70;;;;;;5003568;28;20237;-87
2022/04/19 08:23:01;;;;;;;15.02;9.60;;;24.40;62.50;;;;;;5010850;28;20652;-89
2022/04/19 08:25:28;;;;;;;17.27;10.38;;;24.30;62.80;;;;;;5015772;28;20214;-88
2022/04/19 08:28:02;;;;;;;13.88;8.82;;;24.10;62.30;;;;;;5014345;28;20218;-88
2022/04/19 08:30:31;;;;;;;11.38;8.43;;;24.10;63.40;;;;;;5017316;28;20222;-89
2022/04/19 08:33:04;;;;;;;14.60;9.93;;;24.10;62.30;;;;;;5017266;28;20207;-88
2022/04/19 08:35:31;;;;;;;12.15;8.38;;;24.00;62.10;;;;;;5015712;28;20199;-88
2022/04/19 08:38:02;;;;;;;11.85;8.05;;;24.00;63.10;;;;;;5020168;28;20727;-88
2022/04/19 08:40:33;;;;;;;12.38;8.20;;;24.10;61.20;;;;;;5020377;28;20245;-89
2022/04/19 08:43:03;;;;;;;13.07;8.07;;;23.90;59.80;;;;;;5068588;23;20580;-88
2022/04/19 08:45:33;;;;;;;11.88;7.85;;;23.60;60.40;;;;;;5021089;28;20201;-86
2022/04/19 08:48:09;;;;;;;12.25;7.75;;;23.30;62.00;;;;;;5026639;28;20214;-88
2022/04/19 08:50:44;;;;;;;11.65;7.43;;;23.30;62.40;;;;;;5023916;28;20244;-88
2022/04/19 08:58:54;;;;;;;13.32;6.68;;;23.40;62.20;;;;;;5032962;28;20221;-85
2022/04/19 09:01:36;;;;;;;10.93;7.30;;;23.40;61.70;;;;;;5021341;28;20252;-88
2022/04/19 09:04:11;;;;;;;12.27;6.63;;;23.40;59.60;;;;;;5023430;28;20291;-88
2022/04/19 09:07:24;;;;;;;13.48;6.07;;;23.00;59.20;;;;;;5030940;28;20238;-88
2022/04/19 09:14:56;;;;;;;13.38;6.43;;;22.20;61.40;;;;;;4951897;29;20200;-88
2022/04/19 09:18:11;;;;;;;11.15;6.20;;;22.00;61.20;;;;;;4958621;28;20609;-88
2022/04/19 09:20:56;;;;;;;13.65;6.65;;;21.80;61.60;;;;;;4953653;29;20303;-88
2022/04/19 09:24:15;;;;;;;13.07;6.10;;;21.90;62.60;;;;;;4924704;28;20224;-88
2022/04/19 09:27:44;;;;;;;;;;;;;;;;;;;;;
2022/04/19 09:30:29;;;;;;;9.35;5.97;;;22.50;62.90;;;;;;5030687;28;20716;-89
2022/04/19 09:37:16;;;;;;;9.52;6.22;;;22.70;62.50;;;;;;5010943;28;20227;-88
2022/04/19 09:43:27;;;;;;;11.65;6.53;;;22.60;61.30;;;;;;5013503;28;20222;-87
2022/04/19 09:46:14;;;;;;;12.70;6.72;;;22.40;61.90;;;;;;5008817;28;20262;-89
2022/04/19 09:49:13;;;;;;;15.40;7.72;;;22.30;63.30;;;;;;5004978;28;20223;-89
2022/04/19 09:51:49;;;;;;;14.00;6.93;;;22.30;63.20;;;;;;5000929;28;20227;-87
2022/04/19 09:54:29;;;;;;;12.50;7.20;;;22.30;63.20;;;;;;5004515;28;20246;-87
2022/04/19 09:56:57;;;;;;;10.32;6.43;;;22.00;63.20;;;;;;5005004;28;20241;-87
2022/04/19 09:59:30;;;;;;;12.13;7.53;;;21.80;61.70;;;;;;5010002;28;20257;-87
2022/04/19 10:10:18;;;;;;;10.88;6.07;;;21.10;65.00;;;;;;5004761;28;20227;-86
2022/04/19 10:13:06;;;;;;;11.02;5.80;;;21.10;64.80;;;;;;5015175;28;20202;-86
2022/04/19 10:15:55;;;;;;;11.88;6.07;;;21.20;64.70;;;;;;4980964;28;20199;-86
2022/04/19 10:18:25;;;;;;;10.88;6.40;;;21.30;63.70;;;;;;5009182;28;20215;-86
2022/04/19 10:20:58;;;;;;;10.15;6.38;;;21.40;63.90;;;;;;5016733;28;20222;-86
2022/04/19 10:23:53;;;;;;;12.10;5.95;;;21.40;64.20;;;;;;5006760;28;20246;-86
2022/04/19 10:26:24;;;;;;;12.98;6.15;;;21.60;65.90;;;;;;5008696;28;20336;-87
2022/04/19 10:28:54;;;;;;;12.05;6.22;;;21.70;63.80;;;;;;5000437;28;20206;-87
2022/04/19 10:31:35;;;;;;;10.07;5.80;;;21.70;63.80;;;;;;5005852;28;20777;-86
2022/04/19 10:34:07;;;;;;;12.73;6.50;;;21.60;64.00;;;;;;5004263;28;20274;-87
2022/04/19 10:36:49;;;;;;;10.75;6.43;;;21.60;63.90;;;;;;5002350;28;20223;-87
2022/04/19 10:39:24;;;;;;;10.50;5.80;;;21.50;64.60;;;;;;4999616;28;20214;-87
2022/04/19 10:42:32;;;;;;;11.20;6.47;;;21.40;65.00;;;;;;4996460;28;20629;-87
2022/04/19 10:45:18;;;;;;;9.85;6.28;;;21.30;63.90;;;;;;4976917;28;20212;-85
2022/04/19 10:47:53;;;;;;;10.40;5.95;;;21.40;64.40;;;;;;4977643;28;20207;-86
2022/04/19 10:50:50;;;;;;;11.70;5.82;;;21.30;64.90;;;;;;4973759;28;20729;-86
2022/04/19 10:53:40;;;;;;;11.15;5.72;;;21.30;65.40;;;;;;4982797;28;20672;-88
2022/04/19 10:56:16;;;;;;;10.32;5.20;;;21.40;64.90;;;;;;4983520;28;20216;-86
2022/04/19 10:59:21;;;;;;;11.23;5.65;;;21.40;64.00;;;;;;4974213;28;20219;-87
2022/04/19 11:01:53;;;;;;;10.57;6.40;;;21.30;66.60;;;;;;4988527;28;20310;-86
2022/04/19 11:04:40;;;;;;;8.07;5.50;;;21.30;66.40;;;;;;4985599;28;20285;-87
2022/04/19 11:07:43;;;;;;;7.93;4.65;;;21.50;66.90;;;;;;4981604;28;20215;-87
2022/04/19 11:10:43;;;;;;;8.38;4.40;;;21.40;66.40;;;;;;4986453;28;20293;-86
2022/04/19 11:13:41;;;;;;;7.47;4.60;;;21.30;66.40;;;;;;4991507;28;20218;-85
2022/04/19 11:17:00;;;;;;;;;;;;;;;;;;;;;
2022/04/19 11:20:06;;;;;;;7.18;4.40;;;20.90;66.50;;;;;;4977136;28;20219;-86
2022/04/19 11:23:01;;;;;;;7.85;4.45;;;20.90;67.10;;;;;;4980798;28;20219;-86
2022/04/19 11:25:43;;;;;;;7.15;4.28;;;21.00;67.40;;;;;;4985288;28;20211;-87
2022/04/19 11:28:38;;;;;;;7.05;4.57;;;21.30;67.60;;;;;;4974877;28;20208;-87
2022/04/19 11:31:14;;;;;;;8.63;4.28;;;21.50;67.80;;;;;;4972871;28;20277;-85
2022/04/19 11:33:49;;;;;;;6.28;4.25;;;21.60;69.10;;;;;;4977915;28;20213;-86
2022/04/19 11:36:25;;;;;;;6.82;3.88;;;21.60;68.20;;;;;;4978674;28;20231;-86
2022/04/19 11:39:04;;;;;;;7.05;4.50;;;21.70;67.60;;;;;;4973135;28;20557;-86
2022/04/19 11:47:46;;;;;;;4.32;3.13;;;21.40;67.80;;;;;;4960167;28;20204;-87
2022/04/19 11:50:50;;;;;;;6.25;3.45;;;21.50;67.30;;;;;;4955340;28;20236;-85
2022/04/19 11:56:07;;;;;;;3.10;2.20;;;21.70;65.80;;;;;;4958804;28;20662;-87
2022/04/19 11:58:52;;;;;;;5.13;2.63;;;21.80;64.80;;;;;;4954303;28;20263;-86
2022/04/19 12:01:22;;;;;;;4.20;2.92;;;21.80;64.40;;;;;;4955556;28;20254;-85
2022/04/19 12:03:52;;;;;;;4.80;3.00;;;21.90;64.80;;;;;;4960067;28;20689;-85
2022/04/19 12:06:27;;;;;;;3.47;2.50;;;21.90;63.10;;;;;;4959182;28;20199;-86
2022/04/19 12:08:55;;;;;;;4.05;3.08;;;21.90;64.30;;;;;;4955661;28;20216;-86
2022/04/19 12:11:28;;;;;;;6.00;3.05;;;21.90;65.30;;;;;;4957399;28;20239;-86
2022/04/19 12:13:59;;;;;;;4.72;2.47;;;22.10;65.00;;;;;;4954512;28;20295;-85
2022/04/19 12:16:39;;;;;;;3.65;2.33;;;22.10;64.30;;;;;;4954932;28;20205;-86
2022/04/19 12:19:30;;;;;;;3.50;2.40;;;22.10;63.50;;;;;;4959564;28;20231;-87
2022/04/19 12:22:05;;;;;;;3.75;2.85;;;22.20;63.60;;;;;;4954333;28;20310;-85
2022/04/19 12:24:34;;;;;;;6.97;3.40;;;22.10;61.50;;;;;;4954382;28;20208;-86
2022/04/19 12:27:05;;;;;;;3.15;2.58;;;21.70;62.30;;;;;;4961410;28;20220;-86
2022/04/19 12:29:37;;;;;;;4.53;2.95;;;21.40;62.10;;;;;;4952226;28;20669;-87
2022/04/19 12:32:06;;;;;;;3.25;2.40;;;21.40;64.60;;;;;;4962031;28;20695;-85
2022/04/19 12:34:39;;;;;;;13.05;3.60;;;21.60;65.90;;;;;;4956036;28;20546;-89
2022/04/19 12:37:21;;;;;;;2.95;2.50;;;21.70;65.20;;;;;;4953920;28;20224;-87
2022/04/19 12:40:04;;;;;;;5.68;2.83;;;21.80;65.00;;;;;;4958196;28;20224;-86
2022/04/19 12:42:52;;;;;;;2.53;2.33;;;21.90;63.80;;;;;;4982327;28;20239;-88
2022/04/19 12:45:35;;;;;;;4.50;2.72;;;22.00;61.70;;;;;;5004770;28;20586;-88
2022/04/19 12:48:35;;;;;;;4.05;2.30;;;21.90;63.50;;;;;;5010629;28;20218;-86
2022/04/19 12:51:27;;;;;;;4.47;2.20;;;21.90;62.70;;;;;;5019367;28;20238;-86
2022/04/19 12:54:07;;;;;;;3.45;1.90;;;21.90;59.30;;;;;;4997415;28;20750;-87
2022/04/19 12:56:47;;;;;;;3.13;2.33;;;22.00;60.90;;;;;;4999740;28;20298;-88
2022/04/19 12:59:32;;;;;;;4.72;3.00;;;22.20;62.10;;;;;;4993119;28;20223;-87
2022/04/19 13:02:25;;;;;;;;;;;;;;;;;;;;;
2022/04/19 13:12:16;;;;;;;3.53;2.88;;;22.40;61.30;;;;;;4999108;28;20211;-85
2022/04/19 13:12:22;;;;;;;3.25;2.70;;;22.40;60.90;;;;;;4981561;28;20239;-85
2022/04/19 13:15:04;;;;;;;4.57;2.65;;;21.90;58.50;;;;;;4994376;28;20298;-87
2022/04/19 13:17:39;;;;;;;6.03;2.83;;;21.80;59.70;;;;;;5012260;28;20300;-84
2022/04/19 13:20:16;;;;;;;6.32;2.28;;;21.80;59.40;;;;;;5001684;28;20210;-86
2022/04/19 13:22:56;;;;;;;3.30;1.92;;;21.80;59.10;;;;;;5005000;28;20231;-87
2022/04/19 13:26:03;;;;;;;2.97;2.35;;;21.90;59.20;;;;;;5008304;28;20218;-86
2022/04/19 13:28:45;;;;;;;5.78;2.60;;;22.00;59.10;;;;;;5005660;28;20687;-87
2022/04/19 13:31:52;;;;;;;3.25;2.30;;;21.90;58.50;;;;;;5005551;28;20241;-86
2022/04/19 13:40:42;;;;;;;4.95;2.65;;;22.20;59.10;;;;;;4994504;28;20211;-85
2022/04/19 13:43:17;;;;;;;3.25;2.45;;;22.40;58.90;;;;;;5004984;28;20269;-85
2022/04/19 13:45:54;;;;;;;4.35;2.30;;;22.40;57.80;;;;;;5000321;28;20210;-86
2022/04/19 13:48:34;;;;;;;;;;;;;;;;;;;;;
2022/04/19 13:51:12;;;;;;;4.43;2.47;;;22.10;59.40;;;;;;4997061;28;20254;-87
2022/04/19 13:53:50;;;;;;;4.07;2.53;;;22.20;60.00;;;;;;4999278;28;20668;-84
2022/04/19 13:56:27;;;;;;;2.60;2.05;;;22.30;59.80;;;;;;5006134;28;20218;-86
2022/04/19 13:59:26;;;;;;;4.50;2.50;;;22.20;59.40;;;;;;5004322;28;20209;-87
2022/04/19 14:02:10;;;;;;;4.93;2.15;;;22.20;59.80;;;;;;5005161;28;20275;-85
2022/04/19 14:04:43;;;;;;;2.78;2.20;;;22.20;59.60;;;;;;5002180;28;20213;-85
2022/04/19 14:07:24;;;;;;;5.60;2.33;;;22.20;59.00;;;;;;4997266;28;20701;-85
2022/04/19 14:10:03;;;;;;;6.68;2.78;;;22.10;59.40;;;;;;5004415;28;20638;-84
2022/04/19 14:13:07;;;;;;;2.97;2.53;;;22.10;59.90;;;;;;5006169;28;20222;-87
2022/04/19 14:19:23;;;;;;;2.63;2.15;;;22.30;60.10;;;;;;4943508;28;20775;-83
2022/04/19 14:22:34;;;;;;;;;;;;;;;;;;;;;
2022/04/19 14:26:12;;;;;;;3.53;2.20;;;22.40;60.10;;;;;;4967883;28;20215;-84
2022/04/19 14:36:01;;;;;;;2.08;1.77;;;22.10;59.80;;;;;;4832971;29;20757;-84